Algodones, New Mexico
Current Conditions -  °F | °C
As of 12:52 PM on Monday 22 Dec 2014 (Local Time) from KABQ Reporting Station
Broken Clouds Broken Clouds  
Wind Chill: 59°   Ceiling: 24000
Heat Index: 59°   Visibility: 10mi
Dew Point: 29°   Wind: 24mph
Humidity: 32%   Direction: 290°WNW
Pressure: 29.75"   Gusts: 31mph
Location:  35.38°N, 106.48°W
Report Text: KABQ 221952Z 29021G27KT 10SM SCT075 SCT140 BKN240 15/M02 A2975 RMK AO2 PK WND 30027/1947 WSHFT 1923 SLP045 T01501017
Loading
Personal Weather Stations






























Interactive Weather Map New forecast layout! Learn more

10-Day Weather Forecast

Advertisements
Track Severe Weather on mobile